createdAt,value
2019-04-29T00:00:57.123Z,97991.42
2019-04-29T00:03:29.241Z,97990.70
2019-04-29T00:06:01.231Z,97985.05
2019-04-29T00:08:33.256Z,97986.41
2019-04-29T00:11:05.245Z,97985.56
2019-04-29T00:13:37.527Z,97986.89
2019-04-29T00:16:31.833Z,97979.63
2019-04-29T00:19:37.897Z,97988.28
2019-04-29T00:22:10.475Z,97990.68
2019-04-29T00:24:42.443Z,97990.68
2019-04-29T00:27:14.482Z,97983.19
2019-04-29T00:29:46.472Z,97979.51
2019-04-29T00:32:18.453Z,97975.06
2019-04-29T00:34:51.113Z,97976.66
2019-04-29T00:37:40.628Z,97970.42
2019-04-29T00:40:30.306Z,97965.94
2019-04-29T00:43:25.178Z,97972.55
2019-04-29T00:45:57.193Z,97975.44
2019-04-29T00:48:29.173Z,97979.76
2019-04-29T00:51:01.167Z,97980.73
2019-04-29T00:53:33.231Z,97975.84
2019-04-29T00:56:05.283Z,97975.44
2019-04-29T00:58:37.241Z,97979.80
2019-04-29T01:01:15.379Z,97985.48
2019-04-29T01:03:47.573Z,97973.14
2019-04-29T01:06:19.912Z,97968.45
2019-04-29T01:08:51.910Z,97968.45
2019-04-29T01:11:24.003Z,97961.77
2019-04-29T01:13:55.954Z,97965.05
2019-04-29T01:16:27.917Z,97958.43
2019-04-29T01:18:59.917Z,97956.11
2019-04-29T01:21:31.889Z,97946.42
2019-04-29T01:24:04.031Z,97946.14
2019-04-29T01:26:57.873Z,97952.75
2019-04-29T01:29:30.912Z,97949.05
2019-04-29T01:32:03.044Z,97946.30
2019-04-29T01:34:41.515Z,97948.86
2019-04-29T01:37:13.495Z,97943.77
2019-04-29T01:39:59.351Z,97941.90
2019-04-29T01:42:36.381Z,97941.25
2019-04-29T01:45:08.700Z,97945.47
2019-04-29T01:47:40.725Z,97941.70
2019-04-29T01:50:12.777Z,97936.48
2019-04-29T01:52:44.747Z,97935.81
2019-04-29T01:55:16.714Z,97933.81
2019-04-29T01:57:48.705Z,97934.53
2019-04-29T02:00:20.973Z,97937.97
2019-04-29T02:02:53.027Z,97935.89
2019-04-29T02:05:25.019Z,97936.81
2019-04-29T02:07:57.001Z,97936.37
2019-04-29T02:10:34.053Z,97932.33
2019-04-29T02:13:06.158Z,97927.20
2019-04-29T02:15:38.135Z,97924.23
2019-04-29T02:18:10.457Z,97920.31
2019-04-29T02:20:42.479Z,97918.94
2019-04-29T02:23:22.720Z,97916.86
2019-04-29T02:25:54.815Z,97912.61
2019-04-29T02:28:26.856Z,97923.31
2019-04-29T02:31:00.954Z,97922.71
2019-04-29T02:33:32.925Z,97918.06
2019-04-29T02:36:04.869Z,97917.82
2019-04-29T02:38:42.933Z,97915.18
2019-04-29T02:41:29.581Z,97918.75
2019-04-29T02:44:03.281Z,97918.95
2019-04-29T02:46:35.475Z,97918.34
2019-04-29T02:49:07.470Z,97916.50
2019-04-29T02:51:48.930Z,97918.46
2019-04-29T02:54:21.206Z,97913.30
2019-04-29T02:57:04.976Z,97911.63
2019-04-29T02:59:41.724Z,97909.38
2019-04-29T03:02:35.560Z,97909.17
2019-04-29T03:05:14.881Z,97903.97
2019-04-29T03:07:46.873Z,97907.48
2019-04-29T03:10:18.892Z,97905.29
2019-04-29T03:12:51.001Z,97893.67
2019-04-29T03:15:34.491Z,97898.72
2019-04-29T03:18:06.559Z,97897.87
2019-04-29T03:20:55.903Z,97899.59
2019-04-29T03:23:28.173Z,97900.65
2019-04-29T03:26:00.486Z,97893.00
2019-04-29T03:28:32.442Z,97892.75
2019-04-29T03:31:04.430Z,97892.88
2019-04-29T03:33:36.471Z,97893.23
2019-04-29T03:36:08.627Z,97894.55
2019-04-29T03:38:41.303Z,97886.39
2019-04-29T03:41:13.256Z,97883.09
2019-04-29T03:43:45.243Z,97883.26
2019-04-29T03:46:17.210Z,97881.25
2019-04-29T03:48:49.186Z,97873.41
2019-04-29T03:51:21.257Z,97870.36
2019-04-29T03:53:53.234Z,97876.57
2019-04-29T03:56:25.266Z,97866.79
2019-04-29T03:58:57.247Z,97870.87
2019-04-29T04:01:48.067Z,97871.11
2019-04-29T04:04:37.795Z,97865.52
2019-04-29T04:07:27.653Z,97864.60
2019-04-29T04:09:59.718Z,97873.94
2019-04-29T04:12:31.733Z,97866.61
2019-04-29T04:15:03.803Z,97866.84
2019-04-29T04:17:41.475Z,97871.42
2019-04-29T04:20:15.241Z,97869.09
2019-04-29T04:22:47.926Z,97866.31
2019-04-29T04:25:20.421Z,97870.00
2019-04-29T04:27:52.443Z,97876.48
2019-04-29T04:30:24.609Z,97886.79
2019-04-29T04:32:56.605Z,97889.54
2019-04-29T04:35:28.639Z,97887.29
2019-04-29T04:38:00.630Z,97894.12
2019-04-29T04:40:36.988Z,97892.93
2019-04-29T04:43:08.990Z,97891.78
2019-04-29T04:45:40.987Z,97901.12
2019-04-29T04:48:13.081Z,97899.09
2019-04-29T04:50:45.138Z,97902.93
2019-04-29T04:53:17.174Z,97904.09
2019-04-29T04:55:50.825Z,97904.14
2019-04-29T04:58:22.812Z,97897.40
2019-04-29T05:00:54.805Z,97900.89
2019-04-29T05:03:26.816Z,97902.21
2019-04-29T05:05:58.817Z,97892.73
2019-04-29T05:08:31.249Z,97889.02
2019-04-29T05:11:03.223Z,97896.92
2019-04-29T05:13:36.223Z,97895.69
2019-04-29T05:16:08.307Z,97894.11
2019-04-29T05:18:40.307Z,97895.83
2019-04-29T05:21:12.289Z,97893.84
2019-04-29T05:23:44.276Z,97893.53
2019-04-29T05:26:16.307Z,97893.52
2019-04-29T05:28:48.291Z,97888.67
2019-04-29T05:31:20.249Z,97893.27
2019-04-29T05:33:52.199Z,97888.36
2019-04-29T05:36:40.053Z,97896.00
2019-04-29T05:39:16.478Z,97898.03
2019-04-29T05:41:48.447Z,97895.85
2019-04-29T05:44:48.260Z,97894.53
2019-04-29T05:47:52.407Z,97894.91
2019-04-29T05:50:41.403Z,97890.62
2019-04-29T05:53:25.915Z,97901.12
2019-04-29T05:55:57.870Z,97904.27
2019-04-29T05:58:32.726Z,97910.58
2019-04-29T06:01:11.137Z,97904.48
2019-04-29T06:03:44.438Z,97901.81
2019-04-29T06:06:16.661Z,97901.27
2019-04-29T06:08:48.635Z,97897.30
2019-04-29T06:11:23.224Z,97890.16
2019-04-29T06:13:54.374Z,97890.83
2019-04-29T06:16:26.412Z,97890.14
2019-04-29T06:19:00.433Z,97888.17
2019-04-29T06:21:32.181Z,97894.51
2019-04-29T06:24:06.179Z,97891.34
2019-04-29T06:26:37.881Z,97894.05
2019-04-29T06:29:10.387Z,97889.73
2019-04-29T06:31:42.372Z,97894.68
2019-04-29T06:34:14.381Z,97893.45
2019-04-29T06:36:46.377Z,97896.19
2019-04-29T06:39:18.471Z,97897.37
2019-04-29T06:41:50.736Z,97904.24
2019-04-29T06:44:22.695Z,97905.12
2019-04-29T06:46:56.267Z,97903.45
2019-04-29T06:49:28.474Z,97912.74
2019-04-29T06:52:00.631Z,97915.39
2019-04-29T06:54:32.666Z,97913.70
2019-04-29T06:57:04.688Z,97912.29
2019-04-29T06:59:36.696Z,97909.09
2019-04-29T07:02:09.373Z,97915.16
2019-04-29T07:04:42.430Z,97917.77
2019-04-29T07:07:14.503Z,97919.48
2019-04-29T07:09:46.524Z,97920.66
2019-04-29T07:12:18.623Z,97918.46
2019-04-29T07:14:50.995Z,97921.91
2019-04-29T07:17:23.007Z,97913.70
2019-04-29T07:19:57.498Z,97916.12
2019-04-29T07:22:31.136Z,97911.84
2019-04-29T07:25:02.551Z,97909.86
2019-04-29T07:27:42.815Z,97913.36
2019-04-29T07:30:09.180Z,97917.02
2019-04-29T07:32:41.951Z,97914.84
2019-04-29T07:35:15.207Z,97911.45
2019-04-29T07:37:47.335Z,97918.39
2019-04-29T07:40:19.684Z,97918.94
2019-04-29T07:42:51.751Z,97922.55
2019-04-29T07:45:58.930Z,97924.34
2019-04-29T07:48:28.684Z,97924.64
2019-04-29T07:51:04.235Z,97912.11
2019-04-29T07:53:44.506Z,97916.30
2019-04-29T07:56:08.557Z,97917.53
2019-04-29T07:58:40.549Z,97920.19
2019-04-29T08:01:12.626Z,97921.55
2019-04-29T08:03:44.720Z,97916.97
2019-04-29T08:06:17.762Z,97913.26
2019-04-29T08:08:55.554Z,97912.95
2019-04-29T08:11:24.699Z,97909.98
2019-04-29T08:13:56.760Z,97908.09
2019-04-29T08:16:28.748Z,97905.58
2019-04-29T08:19:01.221Z,97906.63
2019-04-29T08:21:33.277Z,97903.39
2019-04-29T08:24:05.597Z,97904.86
2019-04-29T08:26:41.542Z,97906.52
2019-04-29T08:29:11.330Z,97901.07
2019-04-29T08:31:43.298Z,97900.88
2019-04-29T08:34:18.769Z,97904.95
2019-04-29T08:36:49.016Z,97906.02
2019-04-29T08:39:25.034Z,97903.39
2019-04-29T08:41:58.813Z,97909.66
2019-04-29T08:44:54.764Z,97914.06
2019-04-29T08:47:31.425Z,97911.00
2019-04-29T08:50:01.233Z,97908.68
2019-04-29T08:52:33.232Z,97905.50
2019-04-29T08:55:05.374Z,97912.30
2019-04-29T08:57:37.543Z,97913.47
2019-04-29T09:00:11.220Z,97910.11
2019-04-29T09:02:47.265Z,97913.23
2019-04-29T09:05:17.223Z,97909.44
2019-04-29T09:07:52.534Z,97914.25
2019-04-29T09:10:23.147Z,97904.75
2019-04-29T09:12:55.119Z,97908.31
2019-04-29T09:15:27.124Z,97903.86
2019-04-29T09:17:59.139Z,97912.42
2019-04-29T09:20:31.221Z,97914.45
2019-04-29T09:23:08.161Z,97920.98
2019-04-29T09:26:03.284Z,97910.05
2019-04-29T09:28:35.706Z,97912.66
2019-04-29T09:31:07.791Z,97915.91
2019-04-29T09:33:39.839Z,97917.83
2019-04-29T09:36:13.958Z,97916.45
2019-04-29T09:38:45.622Z,97909.85
2019-04-29T09:41:35.263Z,97916.38
2019-04-29T09:44:35.229Z,97917.64
2019-04-29T09:47:10.258Z,97910.26
2019-04-29T09:49:42.463Z,97908.35
2019-04-29T09:52:15.190Z,97907.13
2019-04-29T09:54:47.214Z,97912.38
2019-04-29T09:57:19.175Z,97911.70
2019-04-29T10:00:07.069Z,97907.39
2019-04-29T10:02:50.348Z,97905.37
2019-04-29T10:05:43.673Z,97897.70
2019-04-29T10:08:15.872Z,97899.11
2019-04-29T10:10:47.908Z,97894.30
2019-04-29T10:13:20.251Z,97892.52
2019-04-29T10:16:08.765Z,97894.84
2019-04-29T10:19:00.609Z,97887.70
2019-04-29T10:21:31.624Z,97889.30
2019-04-29T10:24:03.794Z,97882.56
2019-04-29T10:26:36.987Z,97885.72
2019-04-29T10:29:13.726Z,97885.84
2019-04-29T10:31:46.874Z,97883.25
2019-04-29T10:34:19.265Z,97889.27
2019-04-29T10:36:52.543Z,97886.46
2019-04-29T10:39:42.250Z,97890.13
2019-04-29T10:42:14.698Z,97884.28
2019-04-29T10:45:08.633Z,97881.28
2019-04-29T10:48:06.245Z,97881.77
2019-04-29T10:50:40.109Z,97878.52
2019-04-29T10:53:15.654Z,97882.30
2019-04-29T10:55:46.223Z,97884.22
2019-04-29T10:58:21.895Z,97882.79
2019-04-29T11:02:01.727Z,97885.31
2019-04-29T11:04:31.720Z,97892.11
2019-04-29T11:07:14.408Z,97886.89
2019-04-29T11:09:52.878Z,97886.97
2019-04-29T11:12:24.993Z,97882.45
2019-04-29T11:14:57.135Z,97886.20
2019-04-29T11:17:29.591Z,97885.48
2019-04-29T11:20:01.679Z,97889.66
2019-04-29T11:22:39.363Z,97889.86
2019-04-29T11:25:32.282Z,97887.50
2019-04-29T11:28:04.360Z,97887.54
2019-04-29T11:30:39.444Z,97890.32
2019-04-29T11:33:26.064Z,97889.72
2019-04-29T11:36:05.896Z,97890.34
2019-04-29T11:38:38.609Z,97886.95
2019-04-29T11:41:12.213Z,97884.42
2019-04-29T11:43:46.776Z,97882.84
2019-04-29T11:46:21.067Z,97883.63
2019-04-29T11:48:53.995Z,97887.58
2019-04-29T11:51:34.147Z,97889.85
2019-04-29T11:54:08.176Z,97886.62
2019-04-29T11:56:39.811Z,97892.13
2019-04-29T11:59:33.711Z,97891.88
2019-04-29T12:02:24.766Z,97893.30
2019-04-29T12:05:08.746Z,97888.88
2019-04-29T12:07:41.759Z,97886.70
2019-04-29T12:10:13.854Z,97898.42
2019-04-29T12:12:47.764Z,97900.80
2019-04-29T12:15:32.219Z,97898.06
2019-04-29T12:18:11.815Z,97890.67
2019-04-29T12:21:05.484Z,97898.31
2019-04-29T12:23:37.502Z,97900.72
2019-04-29T12:26:09.878Z,97895.84
2019-04-29T12:28:42.878Z,97896.08
2019-04-29T12:31:24.319Z,97900.09
2019-04-29T12:34:13.127Z,97898.50
2019-04-29T12:36:55.823Z,97898.84
2019-04-29T12:39:44.750Z,97895.98
2019-04-29T12:42:41.552Z,97893.79
2019-04-29T12:45:23.448Z,97904.73
2019-04-29T12:47:55.443Z,97896.58
2019-04-29T12:50:27.830Z,97900.46
2019-04-29T12:53:00.377Z,97898.75
2019-04-29T12:55:45.067Z,97896.92
2019-04-29T12:58:12.522Z,97892.73
2019-04-29T13:00:48.165Z,97894.86
2019-04-29T13:03:30.857Z,97893.27
2019-04-29T13:06:39.561Z,97893.34
2019-04-29T13:09:17.854Z,97889.56
2019-04-29T13:11:56.034Z,97887.97
2019-04-29T13:14:28.646Z,97891.93
2019-04-29T13:17:14.682Z,97887.44
2019-04-29T13:20:07.138Z,97882.63
2019-04-29T13:22:36.353Z,97882.14
2019-04-29T13:25:10.190Z,97881.50
2019-04-29T13:27:42.317Z,97875.02
2019-04-29T13:30:16.329Z,97877.91
2019-04-29T13:32:48.435Z,97873.61
2019-04-29T13:35:20.508Z,97868.36
2019-04-29T13:37:52.468Z,97873.27
2019-04-29T13:40:25.233Z,97873.38
2019-04-29T13:42:57.449Z,97873.18
2019-04-29T13:45:39.728Z,97878.62
2019-04-29T13:48:55.399Z,97875.15
2019-04-29T13:51:35.259Z,97876.02
2019-04-29T13:53:59.851Z,97879.58
2019-04-29T13:56:39.447Z,97873.98
2019-04-29T13:59:09.859Z,97881.61
2019-04-29T14:02:01.265Z,97876.39
2019-04-29T14:04:34.474Z,97871.17
2019-04-29T14:07:06.424Z,97870.79
2019-04-29T14:09:39.180Z,97876.84
2019-04-29T14:12:46.304Z,97877.31
2019-04-29T14:14:45.883Z,97872.59
2019-04-29T14:17:26.713Z,97873.38
2019-04-29T14:19:51.625Z,97870.94
2019-04-29T14:22:23.584Z,97871.78
2019-04-29T14:24:55.585Z,97869.34
2019-04-29T14:27:27.626Z,97869.23
2019-04-29T14:30:03.029Z,97871.40
2019-04-29T14:32:38.049Z,97872.58
2019-04-29T14:35:17.526Z,97869.19
2019-04-29T14:37:55.222Z,97868.07
2019-04-29T14:40:23.191Z,97871.15
2019-04-29T14:43:28.803Z,97872.59
2019-04-29T14:46:34.197Z,97872.89
2019-04-29T14:49:21.788Z,97877.50
2019-04-29T14:51:53.809Z,97875.60
2019-04-29T14:54:25.749Z,97871.75
2019-04-29T14:56:57.773Z,97869.87
2019-04-29T14:59:30.003Z,97874.30
2019-04-29T15:02:16.075Z,97863.59
2019-04-29T15:04:45.832Z,97862.97
2019-04-29T15:07:18.046Z,97863.59
2019-04-29T15:09:58.128Z,97868.33
2019-04-29T15:13:06.689Z,97871.70
2019-04-29T15:16:14.048Z,97868.73
2019-04-29T15:19:20.817Z,97872.83
2019-04-29T15:21:57.871Z,97861.34
2019-04-29T15:24:32.452Z,97866.67
2019-04-29T15:27:05.321Z,97859.70
2019-04-29T15:29:37.360Z,97862.86
2019-04-29T15:32:11.090Z,97861.94
2019-04-29T15:34:43.966Z,97858.25
2019-04-29T15:37:16.874Z,97850.41
2019-04-29T15:39:48.876Z,97846.75
2019-04-29T15:42:20.847Z,97852.36
2019-04-29T15:44:55.911Z,97845.08
2019-04-29T15:47:30.954Z,97849.09
2019-04-29T15:50:03.625Z,97843.49
2019-04-29T15:52:34.721Z,97848.94
2019-04-29T15:55:07.172Z,97842.97
2019-04-29T15:57:39.336Z,97843.25
2019-04-29T16:00:21.577Z,97842.03
2019-04-29T16:02:46.183Z,97838.34
2019-04-29T16:05:30.214Z,97838.58
2019-04-29T16:08:32.940Z,97844.86
2019-04-29T16:11:33.501Z,97845.27
2019-04-29T16:14:09.592Z,97855.41
2019-04-29T16:16:38.414Z,97859.77
2019-04-29T16:19:10.828Z,97859.38
2019-04-29T16:21:42.836Z,97858.16
2019-04-29T16:24:26.272Z,97858.55
2019-04-29T16:26:53.545Z,97852.39
2019-04-29T16:29:22.264Z,97859.31
2019-04-29T16:31:54.956Z,97849.42
2019-04-29T16:34:28.061Z,97849.14
2019-04-29T16:37:00.036Z,97852.30
2019-04-29T16:39:32.105Z,97847.43
2019-04-29T16:42:21.551Z,97844.77
2019-04-29T16:44:53.834Z,97846.10
2019-04-29T16:47:26.003Z,97849.52
2019-04-29T16:50:04.695Z,97848.94
2019-04-29T16:52:31.699Z,97843.95
2019-04-29T16:55:05.698Z,97849.45
2019-04-29T16:57:37.414Z,97852.55
2019-04-29T17:00:14.836Z,97847.69
2019-04-29T17:02:46.278Z,97848.10
2019-04-29T17:05:18.367Z,97849.16
2019-04-29T17:07:50.834Z,97836.84
2019-04-29T17:10:29.323Z,97837.02
2019-04-29T17:13:01.385Z,97844.34
2019-04-29T17:15:33.776Z,97850.04
2019-04-29T17:18:07.251Z,97853.09
2019-04-29T17:20:39.303Z,97849.09
2019-04-29T17:23:11.379Z,97848.44
2019-04-29T17:25:43.590Z,97850.44
2019-04-29T17:28:29.901Z,97851.77
2019-04-29T17:31:23.330Z,97856.14
2019-04-29T17:33:59.296Z,97856.31
2019-04-29T17:36:31.846Z,97856.31
2019-04-29T17:39:04.158Z,97859.75
2019-04-29T17:41:36.227Z,97855.83
2019-04-29T17:44:45.443Z,97859.14
2019-04-29T17:47:47.380Z,97859.06
2019-04-29T17:50:30.713Z,97864.23
2019-04-29T17:52:57.811Z,97872.38
2019-04-29T17:55:42.311Z,97861.70
2019-04-29T17:58:19.791Z,97868.69
2019-04-29T18:01:15.522Z,97869.92
2019-04-29T18:04:05.980Z,97873.19
2019-04-29T18:06:46.068Z,97871.05
2019-04-29T18:09:37.049Z,97873.31
2019-04-29T18:12:27.959Z,97874.19
2019-04-29T18:15:00.379Z,97865.83
2019-04-29T18:17:36.110Z,97874.28
2019-04-29T18:20:33.043Z,97876.45
2019-04-29T18:23:19.083Z,97872.67
2019-04-29T18:26:17.232Z,97874.38
2019-04-29T18:28:49.340Z,97877.62
2019-04-29T18:31:21.448Z,97877.92
2019-04-29T18:33:53.503Z,97879.47
2019-04-29T18:36:26.721Z,97882.52
2019-04-29T18:38:59.037Z,97873.58
2019-04-29T18:41:31.477Z,97873.39
2019-04-29T18:44:05.333Z,97876.82
2019-04-29T18:46:37.179Z,97875.59
2019-04-29T18:49:09.275Z,97868.42
2019-04-29T18:51:41.229Z,97868.23
2019-04-29T18:54:13.188Z,97872.72
2019-04-29T18:56:45.680Z,97877.34
2019-04-29T18:59:19.813Z,97879.31
2019-04-29T19:01:51.502Z,97882.61
2019-04-29T19:04:38.343Z,97883.64
2019-04-29T19:07:10.810Z,97886.69
2019-04-29T19:09:43.456Z,97891.54
2019-04-29T19:12:15.503Z,97886.14
2019-04-29T19:14:47.917Z,97888.70
2019-04-29T19:17:21.806Z,97893.16
2019-04-29T19:19:55.329Z,97899.91
2019-04-29T19:22:27.399Z,97900.09
2019-04-29T19:24:59.527Z,97897.25
2019-04-29T19:27:37.143Z,97903.05
2019-04-29T19:30:07.144Z,97911.73
2019-04-29T19:32:39.297Z,97910.13
2019-04-29T19:35:11.956Z,97910.61
2019-04-29T19:37:45.321Z,97912.78
2019-04-29T19:40:17.937Z,97912.44
2019-04-29T19:42:50.200Z,97906.38
2019-04-29T19:45:22.253Z,97907.32
2019-04-29T19:47:55.808Z,97906.20
2019-04-29T19:50:28.029Z,97909.13
2019-04-29T19:53:00.664Z,97898.08
2019-04-29T19:55:41.888Z,97898.23
2019-04-29T19:58:12.290Z,97892.23
2019-04-29T20:00:43.146Z,97893.86
2019-04-29T20:03:22.780Z,97888.10
2019-04-29T20:05:54.113Z,97891.53
2019-04-29T20:08:46.690Z,97885.24
2019-04-29T20:11:11.434Z,97886.72
2019-04-29T20:13:37.151Z,97874.58
2019-04-29T20:16:34.109Z,97877.38
2019-04-29T20:19:28.147Z,97877.62
2019-04-29T20:22:05.534Z,97874.52
2019-04-29T20:24:36.203Z,97869.67
2019-04-29T20:27:08.781Z,97867.89
2019-04-29T20:29:40.936Z,97872.47
2019-04-29T20:32:13.131Z,97861.31
2019-04-29T20:34:46.074Z,97866.23
2019-04-29T20:37:19.682Z,97862.94
2019-04-29T20:39:56.616Z,97851.69
2019-04-29T20:42:26.090Z,97858.02
2019-04-29T20:44:58.230Z,97859.56
2019-04-29T20:47:38.068Z,97852.67
2019-04-29T20:50:08.767Z,97853.81
2019-04-29T20:53:01.784Z,97857.25
2019-04-29T20:55:31.975Z,97848.12
2019-04-29T20:58:06.419Z,97853.61
2019-04-29T21:00:40.074Z,97850.31
2019-04-29T21:03:12.356Z,97850.22
2019-04-29T21:05:49.620Z,97848.80
2019-04-29T21:08:19.244Z,97852.09
2019-04-29T21:10:53.101Z,97850.08
2019-04-29T21:13:43.983Z,97844.48
2019-04-29T21:16:30.746Z,97845.35
2019-04-29T21:19:08.756Z,97842.12
2019-04-29T21:21:41.765Z,97843.44
2019-04-29T21:24:18.440Z,97840.14
2019-04-29T21:26:48.139Z,97839.66
2019-04-29T21:29:20.181Z,97838.88
2019-04-29T21:31:58.343Z,97840.14
2019-04-29T21:34:29.732Z,97837.55
2019-04-29T21:37:15.516Z,97836.80
2019-04-29T21:40:00.875Z,97840.39
2019-04-29T21:42:48.932Z,97840.78
2019-04-29T21:45:21.237Z,97843.25
2019-04-29T21:47:54.584Z,97843.54
2019-04-29T21:50:33.958Z,97840.14
2019-04-29T21:53:02.049Z,97843.79
2019-04-29T21:55:35.782Z,97842.56
2019-04-29T21:58:07.820Z,97842.47
2019-04-29T22:00:40.364Z,97841.92
2019-04-29T22:03:12.362Z,97845.16
2019-04-29T22:05:45.112Z,97846.48
2019-04-29T22:08:20.669Z,97845.35
2019-04-29T22:10:50.948Z,97842.60
2019-04-29T22:13:24.802Z,97847.12
2019-04-29T22:15:56.725Z,97840.44
2019-04-29T22:18:28.815Z,97848.94
2019-04-29T22:21:01.131Z,97849.03
2019-04-29T22:23:35.169Z,97848.26
2019-04-29T22:26:07.139Z,97846.54
2019-04-29T22:28:39.108Z,97839.52
2019-04-29T22:31:11.253Z,97842.27
2019-04-29T22:33:43.236Z,97834.39
2019-04-29T22:36:18.126Z,97827.33
2019-04-29T22:38:51.959Z,97817.16
2019-04-29T22:41:42.080Z,97809.55
2019-04-29T22:44:16.762Z,97818.59
2019-04-29T22:46:48.243Z,97822.72
2019-04-29T22:49:25.216Z,97816.64
2019-04-29T22:51:57.058Z,97812.84
2019-04-29T22:54:27.892Z,97813.09
2019-04-29T22:57:00.034Z,97808.72
2019-04-29T22:59:31.972Z,97803.42
2019-04-29T23:02:05.824Z,97794.23
2019-04-29T23:04:37.705Z,97794.38
2019-04-29T23:07:09.957Z,97798.66
2019-04-29T23:09:46.293Z,97795.02
2019-04-29T23:12:18.599Z,97794.23
2019-04-29T23:14:49.331Z,97793.36
2019-04-29T23:17:21.400Z,97787.99
2019-04-29T23:19:57.101Z,97787.06
2019-04-29T23:22:44.971Z,97785.64
2019-04-29T23:25:38.702Z,97786.09
2019-04-29T23:28:10.697Z,97786.78
2019-04-29T23:30:42.735Z,97786.88
2019-04-29T23:33:21.368Z,97792.36
2019-04-29T23:35:48.675Z,97784.86
2019-04-29T23:38:21.069Z,97785.89
2019-04-29T23:40:54.481Z,97780.38
2019-04-29T23:43:28.463Z,97782.39
2019-04-29T23:46:00.860Z,97775.83
2019-04-29T23:48:39.581Z,97777.45
2019-04-29T23:51:06.601Z,97778.53
2019-04-29T23:53:38.602Z,97770.41
2019-04-29T23:56:10.839Z,97770.81
2019-04-29T23:58:55.423Z,97769.30
